createdAt,value
2023-09-24T00:02:26.518Z,12.74
2023-09-24T00:04:53.065Z,12.71
2023-09-24T00:07:20.483Z,12.69
2023-09-24T00:09:47.603Z,12.66
2023-09-24T00:12:14.755Z,12.60
2023-09-24T00:14:41.636Z,12.52
2023-09-24T00:17:09.717Z,12.47
2023-09-24T00:19:36.962Z,12.48
2023-09-24T00:22:05.581Z,12.44
2023-09-24T00:24:32.172Z,12.47
2023-09-24T00:26:58.734Z,12.43
2023-09-24T00:29:25.242Z,12.42
2023-09-24T00:31:51.760Z,12.41
2023-09-24T00:34:18.610Z,12.35
2023-09-24T00:36:46.140Z,12.35
2023-09-24T00:39:12.673Z,12.36
2023-09-24T00:41:39.228Z,12.36
2023-09-24T00:44:06.531Z,12.40
2023-09-24T00:46:33.429Z,12.38
2023-09-24T00:49:00.420Z,12.37
2023-09-24T00:51:28.973Z,12.31
2023-09-24T00:53:56.009Z,12.27
2023-09-24T00:56:24.099Z,12.22
2023-09-24T00:58:54.282Z,12.21
2023-09-24T01:01:25.799Z,12.21
2023-09-24T01:03:54.355Z,12.20
2023-09-24T01:06:21.452Z,12.15
2023-09-24T01:08:48.939Z,12.17
2023-09-24T01:11:15.693Z,12.10
2023-09-24T01:13:44.441Z,12.08
2023-09-24T01:16:12.062Z,12.09
2023-09-24T01:18:43.083Z,12.05
2023-09-24T01:21:18.584Z,12.05
2023-09-24T01:23:48.165Z,12.03
2023-09-24T01:26:16.078Z,12.01
2023-09-24T01:28:44.500Z,11.98
2023-09-24T01:31:11.338Z,11.93
2023-09-24T01:33:39.900Z,11.89
2023-09-24T01:36:08.914Z,11.86
2023-09-24T01:38:35.768Z,11.84
2023-09-24T01:41:04.811Z,11.85
2023-09-24T01:43:31.410Z,11.86
2023-09-24T01:45:57.912Z,11.84
2023-09-24T01:48:24.998Z,11.85
2023-09-24T01:50:53.793Z,11.79
2023-09-24T01:53:20.317Z,11.76
2023-09-24T01:55:46.736Z,11.72
2023-09-24T01:58:13.295Z,11.70
2023-09-24T02:00:40.569Z,11.69
2023-09-24T02:03:08.967Z,11.66
2023-09-24T02:05:37.017Z,11.66
2023-09-24T02:08:07.134Z,11.68
2023-09-24T02:10:40.827Z,11.70
2023-09-24T02:13:13.934Z,11.67
2023-09-24T02:15:40.940Z,11.62
2023-09-24T02:18:07.762Z,11.51
2023-09-24T02:20:34.420Z,11.47
2023-09-24T02:23:02.477Z,11.41
2023-09-24T02:25:34.693Z,11.42
2023-09-24T02:28:01.635Z,11.43
2023-09-24T02:30:31.846Z,11.46
2023-09-24T02:32:59.802Z,11.44
2023-09-24T02:35:26.891Z,11.35
2023-09-24T02:37:53.927Z,11.31
2023-09-24T02:40:29.076Z,11.19
2023-09-24T02:42:57.610Z,11.17
2023-09-24T02:45:25.024Z,11.18
2023-09-24T02:47:51.957Z,11.17
2023-09-24T02:50:24.121Z,11.19
2023-09-24T02:52:54.984Z,11.18
2023-09-24T02:55:23.326Z,11.17
2023-09-24T02:57:52.670Z,11.26
2023-09-24T03:00:28.611Z,11.27
2023-09-24T03:02:59.932Z,11.21
2023-09-24T03:05:27.215Z,11.16
2023-09-24T03:07:58.094Z,11.16
2023-09-24T03:10:25.002Z,11.13
2023-09-24T03:12:51.902Z,11.07
2023-09-24T03:15:19.635Z,10.98
2023-09-24T03:17:49.285Z,10.87
2023-09-24T03:20:17.896Z,10.92
2023-09-24T03:22:49.845Z,10.92
2023-09-24T03:25:18.700Z,10.90
2023-09-24T03:27:51.141Z,10.94
2023-09-24T03:30:21.190Z,10.93
2023-09-24T03:32:49.992Z,10.87
2023-09-24T03:35:20.345Z,10.77
2023-09-24T03:37:47.388Z,10.70
2023-09-24T03:40:16.989Z,10.65
2023-09-24T03:42:44.376Z,10.62
2023-09-24T03:45:16.114Z,10.64
2023-09-24T03:47:43.403Z,10.67
2023-09-24T03:50:14.374Z,10.65
2023-09-24T03:52:45.091Z,10.67
2023-09-24T03:55:11.663Z,10.71
2023-09-24T03:57:39.452Z,10.70
2023-09-24T04:00:11.187Z,10.65
2023-09-24T04:02:39.084Z,10.66
2023-09-24T04:05:06.434Z,10.66
2023-09-24T04:07:35.366Z,10.66
2023-09-24T04:10:01.879Z,10.63
2023-09-24T04:12:28.413Z,10.64
2023-09-24T04:14:55.164Z,10.64
2023-09-24T04:17:21.644Z,10.62
2023-09-24T04:19:48.263Z,10.66
2023-09-24T04:22:16.676Z,10.63
2023-09-24T04:24:43.161Z,10.63
2023-09-24T04:27:10.623Z,10.60
2023-09-24T04:29:37.432Z,10.62
2023-09-24T04:32:04.131Z,10.62
2023-09-24T04:34:30.968Z,10.64
2023-09-24T04:36:57.466Z,10.58
2023-09-24T04:39:24.880Z,10.50
2023-09-24T04:41:51.412Z,10.37
2023-09-24T04:44:18.251Z,10.31
2023-09-24T04:46:45.347Z,10.24
2023-09-24T04:49:12.011Z,10.22
2023-09-24T04:51:38.610Z,10.18
2023-09-24T04:54:05.214Z,10.14
2023-09-24T04:56:32.232Z,10.17
2023-09-24T04:58:59.026Z,10.16
2023-09-24T05:01:25.539Z,10.15
2023-09-24T05:03:52.971Z,10.13
2023-09-24T05:06:19.998Z,10.05
2023-09-24T05:08:47.621Z,10.01
2023-09-24T05:11:15.209Z,10.01
2023-09-24T05:13:42.071Z,9.97
2023-09-24T05:16:09.809Z,9.94
2023-09-24T05:18:37.102Z,9.97
2023-09-24T05:21:06.692Z,9.95
2023-09-24T05:23:33.291Z,10.00
2023-09-24T05:26:00.274Z,10.08
2023-09-24T05:28:26.770Z,10.17
2023-09-24T05:30:54.949Z,10.19
2023-09-24T05:33:22.354Z,10.27
2023-09-24T05:35:53.369Z,10.28
2023-09-24T05:38:20.796Z,10.32
2023-09-24T05:40:47.463Z,10.36
2023-09-24T05:43:13.998Z,10.38
2023-09-24T05:45:47.139Z,10.42
2023-09-24T05:48:15.709Z,10.44
2023-09-24T05:50:42.989Z,10.50
2023-09-24T05:53:11.189Z,10.51
2023-09-24T05:55:37.870Z,10.53
2023-09-24T05:58:08.112Z,10.59
2023-09-24T06:00:38.801Z,10.67
2023-09-24T06:03:05.513Z,10.75
2023-09-24T06:05:32.209Z,11.17
2023-09-24T06:07:58.821Z,11.73
2023-09-24T06:10:25.466Z,12.11
2023-09-24T06:12:54.770Z,12.38
2023-09-24T06:15:21.245Z,12.78
2023-09-24T06:17:50.798Z,13.02
2023-09-24T06:20:18.092Z,13.09
2023-09-24T06:22:47.024Z,13.14
2023-09-24T06:25:13.767Z,13.00
2023-09-24T06:27:41.631Z,12.62
2023-09-24T06:30:11.920Z,12.45
2023-09-24T06:32:38.890Z,12.24
2023-09-24T06:35:05.924Z,12.12
2023-09-24T06:37:32.618Z,12.04
2023-09-24T06:39:59.490Z,12.07
2023-09-24T06:42:26.069Z,12.15
2023-09-24T06:44:54.952Z,12.25
2023-09-24T06:47:21.502Z,12.32
2023-09-24T06:49:51.249Z,12.42
2023-09-24T06:52:17.905Z,12.44
2023-09-24T06:54:44.577Z,12.47
2023-09-24T06:57:11.114Z,12.53
2023-09-24T06:59:37.661Z,12.60
2023-09-24T07:02:04.220Z,12.70
2023-09-24T07:04:31.004Z,12.70
2023-09-24T07:06:57.692Z,12.75
2023-09-24T07:09:24.239Z,12.76
2023-09-24T07:11:50.960Z,12.81
2023-09-24T07:14:20.189Z,12.91
2023-09-24T07:16:48.389Z,12.92
2023-09-24T07:19:14.886Z,12.96
2023-09-24T07:21:41.458Z,13.04
2023-09-24T07:24:08.268Z,13.20
2023-09-24T07:26:34.998Z,13.22
2023-09-24T07:29:01.965Z,13.22
2023-09-24T07:31:30.840Z,13.18
2023-09-24T07:34:00.661Z,13.23
2023-09-24T07:38:56.908Z,13.44
2023-09-24T07:41:23.475Z,13.53
2023-09-24T07:43:50.188Z,13.63
2023-09-24T07:46:17.301Z,13.71
2023-09-24T07:48:45.747Z,13.71
2023-09-24T07:51:12.602Z,13.70
2023-09-24T07:53:39.761Z,13.69
2023-09-24T07:56:11.034Z,13.80
2023-09-24T07:58:39.526Z,13.98
2023-09-24T08:01:11.096Z,13.91
2023-09-24T08:03:38.832Z,14.03
2023-09-24T08:06:06.396Z,14.11
2023-09-24T08:08:49.860Z,14.16
2023-09-24T08:11:18.488Z,14.25
2023-09-24T08:13:45.264Z,14.27
2023-09-24T08:16:11.959Z,14.17
2023-09-24T08:18:38.687Z,14.15
2023-09-24T08:21:05.268Z,14.23
2023-09-24T08:23:33.341Z,14.27
2023-09-24T08:26:03.180Z,14.43
2023-09-24T08:28:29.713Z,14.60
2023-09-24T08:30:56.139Z,14.61
2023-09-24T08:33:22.862Z,14.64
2023-09-24T08:35:49.356Z,14.76
2023-09-24T08:38:16.010Z,14.88
2023-09-24T08:40:42.483Z,14.99
2023-09-24T08:43:16.860Z,15.08
2023-09-24T08:45:43.738Z,15.15
2023-09-24T08:48:10.797Z,15.18
2023-09-24T08:50:43.168Z,15.25
2023-09-24T08:53:14.036Z,15.37
2023-09-24T08:55:48.030Z,15.50
2023-09-24T08:58:14.645Z,15.60
2023-09-24T09:00:43.333Z,15.67
2023-09-24T09:03:09.989Z,15.80
2023-09-24T09:05:38.537Z,16.00
2023-09-24T09:08:06.057Z,16.24
2023-09-24T09:10:38.602Z,16.44
2023-09-24T09:13:16.533Z,16.70
2023-09-24T09:15:44.423Z,16.89
2023-09-24T09:18:27.929Z,17.09
2023-09-24T09:21:01.635Z,17.31
2023-09-24T09:23:46.053Z,17.45
2023-09-24T09:26:12.538Z,17.33
2023-09-24T09:28:39.568Z,17.33
2023-09-24T09:31:09.923Z,17.44
2023-09-24T09:33:42.472Z,17.75
2023-09-24T09:36:26.726Z,17.91
2023-09-24T09:38:54.998Z,17.98
2023-09-24T09:41:24.465Z,17.95
2023-09-24T09:43:53.616Z,18.09
2023-09-24T09:46:25.210Z,18.26
2023-09-24T09:49:07.100Z,18.35
2023-09-24T09:51:38.737Z,18.33
2023-09-24T09:54:08.377Z,18.40
2023-09-24T09:56:38.783Z,18.61
2023-09-24T09:59:05.914Z,18.72
2023-09-24T10:01:33.091Z,18.63
2023-09-24T10:04:04.277Z,18.73
2023-09-24T10:06:36.418Z,18.85
2023-09-24T10:09:28.789Z,18.88
2023-09-24T10:11:57.503Z,18.86
2023-09-24T10:14:35.143Z,18.80
2023-09-24T10:17:16.657Z,18.94
2023-09-24T10:19:53.625Z,19.00
2023-09-24T10:22:41.697Z,19.02
2023-09-24T10:25:30.907Z,19.22
2023-09-24T10:28:09.091Z,19.48
2023-09-24T10:31:05.599Z,19.64
2023-09-24T10:34:00.913Z,19.84
2023-09-24T10:36:30.503Z,19.97
2023-09-24T10:39:06.347Z,19.82
2023-09-24T10:41:34.693Z,19.79
2023-09-24T10:44:27.826Z,19.74
2023-09-24T10:46:57.541Z,19.88
2023-09-24T10:49:26.609Z,19.98
2023-09-24T10:52:02.786Z,19.94
2023-09-24T10:54:29.393Z,19.98
2023-09-24T10:56:56.167Z,20.10
2023-09-24T10:59:34.104Z,19.63
2023-09-24T11:02:19.845Z,18.84
2023-09-24T11:04:48.100Z,18.68
2023-09-24T11:07:14.522Z,19.24
2023-09-24T11:09:48.858Z,19.77
2023-09-24T11:12:15.397Z,20.23
2023-09-24T11:14:41.957Z,20.54
2023-09-24T11:17:08.566Z,20.62
2023-09-24T11:19:42.130Z,20.55
2023-09-24T11:22:17.626Z,20.58
2023-09-24T11:24:44.234Z,20.73
2023-09-24T11:27:10.871Z,20.97
2023-09-24T11:29:37.581Z,21.03
2023-09-24T11:32:04.222Z,21.16
2023-09-24T11:34:32.864Z,21.33
2023-09-24T11:36:59.895Z,21.38
2023-09-24T11:39:26.355Z,21.46
2023-09-24T11:41:52.951Z,21.37
2023-09-24T11:44:21.079Z,21.38
2023-09-24T11:46:47.683Z,21.57
2023-09-24T11:49:14.201Z,21.75
2023-09-24T11:51:40.676Z,21.58
2023-09-24T11:54:07.326Z,21.19
2023-09-24T11:56:33.918Z,21.09
2023-09-24T11:59:01.061Z,21.21
2023-09-24T12:01:27.780Z,21.43
2023-09-24T12:03:57.960Z,21.02
2023-09-24T12:06:24.709Z,20.56
2023-09-24T12:08:51.436Z,20.55
2023-09-24T12:11:18.187Z,21.04
2023-09-24T12:13:44.764Z,21.48
2023-09-24T12:16:11.233Z,21.63
2023-09-24T12:18:37.957Z,21.81
2023-09-24T12:21:04.614Z,22.05
2023-09-24T12:23:31.169Z,21.85
2023-09-24T12:25:57.688Z,21.48
2023-09-24T12:28:24.228Z,21.10
2023-09-24T12:30:51.646Z,21.38
2023-09-24T12:33:18.250Z,21.67
2023-09-24T12:35:44.877Z,21.36
2023-09-24T12:38:11.721Z,21.21
2023-09-24T12:40:38.344Z,21.45
2023-09-24T12:43:05.145Z,21.58
2023-09-24T12:45:31.794Z,21.70
2023-09-24T12:47:58.417Z,21.89
2023-09-24T12:50:25.205Z,21.98
2023-09-24T12:52:51.713Z,22.09
2023-09-24T12:55:18.327Z,22.22
2023-09-24T12:57:46.508Z,22.12
2023-09-24T13:00:15.616Z,22.14
2023-09-24T13:02:47.106Z,22.24
2023-09-24T13:05:16.320Z,22.32
2023-09-24T13:07:45.506Z,22.41
2023-09-24T13:10:15.651Z,22.31
2023-09-24T13:12:43.392Z,21.83
2023-09-24T13:15:10.661Z,21.17
2023-09-24T13:17:37.417Z,20.63
2023-09-24T13:20:05.507Z,20.44
2023-09-24T13:22:32.373Z,20.94
2023-09-24T13:24:59.915Z,21.39
2023-09-24T13:27:26.330Z,21.71
2023-09-24T13:29:53.129Z,21.93
2023-09-24T13:32:22.274Z,21.96
2023-09-24T13:34:49.096Z,22.04
2023-09-24T13:37:15.779Z,22.02
2023-09-24T13:39:42.792Z,21.94
2023-09-24T13:42:09.387Z,21.93
2023-09-24T13:44:36.346Z,22.07
2023-09-24T13:47:02.798Z,22.10
2023-09-24T13:49:29.406Z,22.11
2023-09-24T13:51:56.002Z,22.21
2023-09-24T13:54:22.745Z,22.31
2023-09-24T13:56:49.361Z,22.49
2023-09-24T13:59:16.079Z,22.56
2023-09-24T14:01:42.709Z,22.50
2023-09-24T14:04:09.219Z,22.50
2023-09-24T14:06:35.889Z,22.49
2023-09-24T14:09:20.817Z,22.46
2023-09-24T14:12:05.784Z,22.57
2023-09-24T14:14:32.316Z,22.62
2023-09-24T14:16:58.803Z,22.63
2023-09-24T14:19:25.256Z,22.58
2023-09-24T14:21:51.763Z,22.55
2023-09-24T14:24:18.314Z,22.40
2023-09-24T14:26:45.129Z,22.30
2023-09-24T14:29:11.783Z,22.27
2023-09-24T14:31:38.353Z,22.21
2023-09-24T14:34:04.862Z,22.07
2023-09-24T14:36:31.471Z,21.97
2023-09-24T14:38:58.295Z,21.97
2023-09-24T14:41:25.034Z,21.99
2023-09-24T14:43:51.482Z,22.08
2023-09-24T14:46:18.114Z,21.98
2023-09-24T14:48:44.728Z,21.95
2023-09-24T14:51:11.314Z,21.83
2023-09-24T14:53:38.295Z,21.77
2023-09-24T14:56:05.103Z,21.72
2023-09-24T14:58:32.647Z,21.69
2023-09-24T15:01:07.920Z,21.64
2023-09-24T15:03:36.470Z,21.74
2023-09-24T15:06:06.381Z,21.60
2023-09-24T15:08:33.570Z,21.49
2023-09-24T15:11:04.930Z,21.29
2023-09-24T15:13:31.988Z,21.20
2023-09-24T15:15:58.633Z,21.14
2023-09-24T15:18:25.317Z,21.09
2023-09-24T15:20:52.215Z,21.05
2023-09-24T15:23:21.757Z,21.07
2023-09-24T15:25:48.641Z,21.05
2023-09-24T15:28:15.614Z,20.99
2023-09-24T15:30:43.343Z,21.00
2023-09-24T15:33:10.895Z,20.93
2023-09-24T15:35:38.349Z,20.86
2023-09-24T15:38:08.107Z,20.79
2023-09-24T15:40:36.520Z,20.63
2023-09-24T15:43:05.393Z,20.47
2023-09-24T15:45:32.034Z,20.29
2023-09-24T15:48:02.438Z,20.14
2023-09-24T15:50:29.154Z,20.04
2023-09-24T15:52:55.603Z,19.91
2023-09-24T15:55:22.141Z,19.81
2023-09-24T15:57:48.651Z,19.73
2023-09-24T16:00:15.394Z,19.65
2023-09-24T16:02:42.019Z,19.59
2023-09-24T16:05:10.655Z,19.54
2023-09-24T16:07:38.588Z,19.50
2023-09-24T16:10:06.774Z,19.44
2023-09-24T16:12:33.348Z,19.38
2023-09-24T16:14:59.946Z,19.37
2023-09-24T16:17:26.508Z,19.34
2023-09-24T16:19:52.992Z,19.35
2023-09-24T16:22:19.540Z,19.35
2023-09-24T16:24:46.080Z,19.34
2023-09-24T16:27:12.792Z,19.31
2023-09-24T16:29:39.403Z,19.23
2023-09-24T16:32:05.958Z,19.10
2023-09-24T16:34:32.628Z,18.99
2023-09-24T16:37:01.919Z,18.87
2023-09-24T16:39:28.476Z,18.79
2023-09-24T16:41:54.985Z,18.70
2023-09-24T16:44:21.612Z,18.61
2023-09-24T16:46:49.814Z,18.57
2023-09-24T16:49:16.546Z,18.52
2023-09-24T16:51:43.246Z,18.43
2023-09-24T16:54:09.891Z,18.37
2023-09-24T16:56:36.435Z,18.30
2023-09-24T16:59:03.259Z,18.23
2023-09-24T17:01:30.027Z,18.15
2023-09-24T17:03:56.682Z,18.08
2023-09-24T17:06:24.906Z,17.98
2023-09-24T17:08:52.172Z,17.87
2023-09-24T17:11:19.037Z,17.76
2023-09-24T17:13:45.525Z,17.70
2023-09-24T17:16:15.947Z,17.59
2023-09-24T17:18:42.658Z,17.57
2023-09-24T17:21:13.763Z,17.48
2023-09-24T17:23:40.634Z,17.42
2023-09-24T17:26:11.589Z,17.36
2023-09-24T17:28:39.195Z,17.30
2023-09-24T17:31:08.316Z,17.26
2023-09-24T17:33:36.275Z,17.14
2023-09-24T17:36:04.133Z,17.10
2023-09-24T17:38:31.353Z,17.04
2023-09-24T17:40:57.975Z,17.03
2023-09-24T17:43:24.794Z,16.97
2023-09-24T17:46:09.736Z,16.87
2023-09-24T17:48:36.601Z,16.80
2023-09-24T17:51:08.581Z,16.71
2023-09-24T17:53:36.789Z,16.63
2023-09-24T17:56:06.775Z,16.56
2023-09-24T17:58:33.604Z,16.52
2023-09-24T18:01:10.600Z,16.45
2023-09-24T18:03:43.754Z,16.40
2023-09-24T18:06:12.015Z,16.36
2023-09-24T18:08:40.060Z,16.31
2023-09-24T18:11:07.169Z,16.28
2023-09-24T18:13:34.352Z,16.21
2023-09-24T18:16:09.487Z,16.08
2023-09-24T18:18:37.480Z,16.13
2023-09-24T18:21:05.712Z,16.07
2023-09-24T18:23:36.659Z,15.99
2023-09-24T18:26:04.237Z,15.95
2023-09-24T18:28:31.236Z,15.90
2023-09-24T18:31:01.038Z,15.88
2023-09-24T18:33:30.116Z,15.83
2023-09-24T18:35:59.031Z,15.81
2023-09-24T18:38:26.138Z,15.76
2023-09-24T18:40:55.975Z,15.72
2023-09-24T18:43:26.911Z,15.71
2023-09-24T18:45:55.208Z,15.67
2023-09-24T18:48:22.121Z,15.64
2023-09-24T18:50:51.815Z,15.56
2023-09-24T18:53:18.492Z,15.51
2023-09-24T18:55:45.702Z,15.50
2023-09-24T18:58:12.648Z,15.43
2023-09-24T19:00:41.411Z,15.41
2023-09-24T19:03:09.875Z,15.39
2023-09-24T19:05:36.725Z,15.36
2023-09-24T19:08:03.461Z,15.31
2023-09-24T19:10:31.254Z,15.24
2023-09-24T19:13:00.359Z,15.22
2023-09-24T19:15:26.906Z,15.17
2023-09-24T19:17:53.921Z,15.16
2023-09-24T19:20:23.803Z,15.15
2023-09-24T19:22:50.422Z,15.10
2023-09-24T19:25:17.733Z,15.05
2023-09-24T19:27:44.256Z,15.00
2023-09-24T19:30:11.888Z,14.99
2023-09-24T19:32:38.746Z,14.94
2023-09-24T19:35:05.737Z,14.87
2023-09-24T19:37:32.815Z,14.82
2023-09-24T19:39:59.347Z,14.78
2023-09-24T19:42:25.910Z,14.75
2023-09-24T19:44:52.671Z,14.71
2023-09-24T19:47:20.728Z,14.67
2023-09-24T19:49:47.625Z,14.61
2023-09-24T19:52:15.134Z,14.57
2023-09-24T19:54:43.048Z,14.56
2023-09-24T19:57:09.941Z,14.52
2023-09-24T19:59:36.487Z,14.45
2023-09-24T20:02:02.928Z,14.43
2023-09-24T20:04:30.427Z,14.40
2023-09-24T20:07:01.833Z,14.39
2023-09-24T20:09:30.219Z,14.35
2023-09-24T20:11:56.853Z,14.33
2023-09-24T20:14:24.011Z,14.28
2023-09-24T20:16:50.853Z,14.25
2023-09-24T20:19:18.073Z,14.21
2023-09-24T20:21:44.786Z,14.19
2023-09-24T20:24:11.863Z,14.16
2023-09-24T20:26:43.633Z,14.16
2023-09-24T20:29:10.467Z,14.15
2023-09-24T20:31:37.890Z,14.12
2023-09-24T20:34:06.132Z,14.10
2023-09-24T20:36:34.398Z,14.07
2023-09-24T20:39:11.277Z,14.05
2023-09-24T20:41:38.874Z,14.00
2023-09-24T20:44:07.063Z,13.95
2023-09-24T20:46:37.488Z,13.91
2023-09-24T20:49:04.882Z,13.88
2023-09-24T20:51:32.679Z,13.83
2023-09-24T20:53:59.729Z,13.82
2023-09-24T20:56:26.354Z,13.76
2023-09-24T20:58:57.431Z,13.73
2023-09-24T21:01:24.536Z,13.70
2023-09-24T21:03:51.443Z,13.67
2023-09-24T21:06:18.275Z,13.61
2023-09-24T21:08:44.788Z,13.57
2023-09-24T21:11:11.570Z,13.56
2023-09-24T21:13:39.224Z,13.51
2023-09-24T21:16:08.410Z,13.47
2023-09-24T21:18:35.302Z,13.44
2023-09-24T21:21:02.028Z,13.39
2023-09-24T21:23:29.116Z,13.40
2023-09-24T21:26:03.905Z,13.39
2023-09-24T21:28:31.210Z,13.39
2023-09-24T21:31:09.094Z,13.36
2023-09-24T21:33:40.095Z,13.35
2023-09-24T21:36:07.796Z,13.34
2023-09-24T21:38:34.812Z,13.34
2023-09-24T21:41:01.410Z,13.30
2023-09-24T21:43:32.057Z,13.30
2023-09-24T21:46:00.586Z,13.24
2023-09-24T21:48:27.554Z,13.21
2023-09-24T21:50:54.851Z,13.20
2023-09-24T21:53:24.120Z,13.10
2023-09-24T21:55:50.987Z,12.90
2023-09-24T21:58:18.336Z,12.72
2023-09-24T22:00:45.600Z,12.59
2023-09-24T22:03:13.159Z,12.60
2023-09-24T22:05:41.204Z,12.66
2023-09-24T22:08:10.358Z,12.72
2023-09-24T22:10:39.166Z,12.70
2023-09-24T22:13:06.288Z,12.69
2023-09-24T22:15:35.382Z,12.72
2023-09-24T22:18:04.249Z,12.70
2023-09-24T22:20:34.516Z,12.72
2023-09-24T22:23:01.353Z,12.71
2023-09-24T22:25:27.919Z,12.69
2023-09-24T22:27:54.481Z,12.67
2023-09-24T22:30:23.639Z,12.66
2023-09-24T22:32:50.434Z,12.63
2023-09-24T22:35:20.026Z,12.59
2023-09-24T22:37:46.726Z,12.58
2023-09-24T22:40:16.900Z,12.54
2023-09-24T22:42:45.840Z,12.52
2023-09-24T22:45:19.357Z,12.47
2023-09-24T22:47:46.556Z,12.46
2023-09-24T22:50:14.638Z,12.43
2023-09-24T22:52:44.345Z,12.40
2023-09-24T22:55:12.249Z,12.35
2023-09-24T22:57:39.398Z,12.32
2023-09-24T23:00:12.553Z,12.31
2023-09-24T23:02:44.410Z,12.29
2023-09-24T23:05:16.501Z,12.26
2023-09-24T23:07:44.818Z,12.23
2023-09-24T23:10:13.032Z,12.19
2023-09-24T23:12:39.720Z,12.20
2023-09-24T23:15:06.829Z,12.18
2023-09-24T23:17:35.404Z,12.20
2023-09-24T23:20:06.694Z,12.18
2023-09-24T23:22:33.557Z,12.19
2023-09-24T23:25:00.363Z,12.16
2023-09-24T23:27:27.487Z,12.11
2023-09-24T23:29:54.200Z,12.13
2023-09-24T23:32:20.970Z,12.15
2023-09-24T23:34:48.051Z,12.10
2023-09-24T23:37:14.610Z,12.05
2023-09-24T23:39:41.587Z,12.01
2023-09-24T23:42:10.940Z,12.00
2023-09-24T23:44:39.647Z,11.99
2023-09-24T23:47:06.470Z,11.98
2023-09-24T23:49:33.684Z,11.97
2023-09-24T23:52:00.392Z,11.99
2023-09-24T23:54:27.328Z,11.98
2023-09-24T23:56:54.105Z,11.96
2023-09-24T23:59:21.937Z,11.92
